This is the latest recevied weather packets stored in our database for station/object WB0OCV. If no packets are shown the sender has not sent any weather packets the latest 10 day(s).
| Time | Temp. | Humidity | Pressure | Rain* | Wind** | Luminosity | Snow |
|---|---|---|---|---|---|---|---|
| 1777817810 | 10.56° C | 67% | 1006.8 hPa | 0 mm | - | 140 W/m² | - |
| 1777817508 | 10.56° C | 69% | 1006.6 hPa | 0 mm | - | 210 W/m² | - |
| 1777817203 | 10.56° C | 72% | 1006.6 hPa | 0 mm | - | 208 W/m² | - |
| 1777816901 | 11.11° C | 69% | 1007 hPa | 0 mm | - | 747 W/m² | - |
| 1777816598 | 10.56° C | 70% | 1006.8 hPa | 0 mm | - | 604 W/m² | - |
| 1777816295 | 10.56° C | 73% | 1006.6 hPa | 0 mm | - | 645 W/m² | - |
| 1777815992 | 10.56° C | 70% | 1006.8 hPa | 0 mm | - | 669 W/m² | - |
| 1777815690 | 10° C | 71% | 1006.9 hPa | 0 mm | - | 615 W/m² | - |
| 1777815387 | 10° C | 78% | 1006.7 hPa | 0 mm | - | 573 W/m² | - |
| 1777815084 | 9.44° C | 79% | 1006.8 hPa | 0 mm | - | 166 W/m² | - |
| 1777814780 | 8.89° C | 78% | 1006.9 hPa | 0 mm | - | 87 W/m² | - |
| 1777814477 | 8.89° C | 81% | 1006.8 hPa | 0 mm | - | 106 W/m² | - |
| 1777814174 | 8.33° C | 82% | 1007.1 hPa | 0 mm | - | 106 W/m² | - |
| 1777813871 | 8.89° C | 83% | 1007.2 hPa | 0 mm | - | 110 W/m² | - |
| 1777813569 | 8.89° C | 81% | 1007.1 hPa | 0 mm | - | 92 W/m² | - |
| 1777813266 | 8.33° C | 84% | 1007.1 hPa | 0 mm | - | 66 W/m² | - |
| 1777812963 | 8.33° C | 84% | 1007.1 hPa | 0 mm | - | 61 W/m² | - |
| 1777812660 | 7.78° C | 87% | 1007.2 hPa | 0 mm | - | 76 W/m² | - |
| 1777812357 | 7.22° C | 88% | 1007.2 hPa | 0 mm | - | 65 W/m² | - |
| 1777812055 | 7.22° C | 90% | 1007.4 hPa | 0 mm | - | 55 W/m² | - |
| 1777811754 | 7.22° C | 89% | 1007.1 hPa | 0 mm | - | 73 W/m² | - |
| 1777811449 | 7.22° C | 90% | 1007.2 hPa | 0 mm | - | 104 W/m² | - |
| 1777811146 | 7.22° C | 88% | 1007.4 hPa | 0 mm | - | 113 W/m² | - |
| 1777810843 | 7.22° C | 91% | 1007.4 hPa | 0 mm | - | 112 W/m² | - |
| 1777810540 | 7.22° C | 90% | 1007.3 hPa | 0 mm | - | 100 W/m² | - |
* Rain latest hour (hover to see other rain measurements)
** Current wind speed in m/s (hover to see current wind gust speed)